sensor_id;sensor_type;location;lat;lon;timestamp;temperature;humidity
7216;DHT22;3649;48.798;9.798;2023-05-10T00:00:21;18.40;99.90
7216;DHT22;3649;48.798;9.798;2023-05-10T00:02:49;18.40;99.90
7216;DHT22;3649;48.798;9.798;2023-05-10T00:05:16;18.40;99.90
7216;DHT22;3649;48.798;9.798;2023-05-10T00:07:43;18.30;99.90
7216;DHT22;3649;48.798;9.798;2023-05-10T00:10:13;18.30;99.90
7216;DHT22;3649;48.798;9.798;2023-05-10T00:12:42;18.30;99.90
7216;DHT22;3649;48.798;9.798;2023-05-10T00:15:10;18.20;99.90
7216;DHT22;3649;48.798;9.798;2023-05-10T00:17:37;18.20;99.90
7216;DHT22;3649;48.798;9.798;2023-05-10T00:20:04;18.20;99.90
7216;DHT22;3649;48.798;9.798;2023-05-10T00:22:32;18.20;99.90
7216;DHT22;3649;48.798;9.798;2023-05-10T00:24:59;18.20;99.90
7216;DHT22;3649;48.798;9.798;2023-05-10T00:27:26;18.10;99.90
7216;DHT22;3649;48.798;9.798;2023-05-10T00:29:53;18.10;99.90
7216;DHT22;3649;48.798;9.798;2023-05-10T00:32:19;18.10;99.90
7216;DHT22;3649;48.798;9.798;2023-05-10T00:34:47;18.10;99.90
7216;DHT22;3649;48.798;9.798;2023-05-10T00:37:14;18.10;99.90
7216;DHT22;3649;48.798;9.798;2023-05-10T00:39:41;18.00;99.90
7216;DHT22;3649;48.798;9.798;2023-05-10T00:42:07;18.00;99.90
7216;DHT22;3649;48.798;9.798;2023-05-10T00:44:34;18.00;99.90
7216;DHT22;3649;48.798;9.798;2023-05-10T00:47:01;18.00;99.90
7216;DHT22;3649;48.798;9.798;2023-05-10T00:49:28;17.90;99.90
7216;DHT22;3649;48.798;9.798;2023-05-10T00:51:55;17.90;99.90
7216;DHT22;3649;48.798;9.798;2023-05-10T00:54:22;17.80;99.90
7216;DHT22;3649;48.798;9.798;2023-05-10T00:56:49;17.80;99.90
7216;DHT22;3649;48.798;9.798;2023-05-10T00:59:17;17.90;99.90
7216;DHT22;3649;48.798;9.798;2023-05-10T01:01:47;17.90;99.90
7216;DHT22;3649;48.798;9.798;2023-05-10T01:04:15;17.80;99.90
7216;DHT22;3649;48.798;9.798;2023-05-10T01:06:42;17.90;99.90
7216;DHT22;3649;48.798;9.798;2023-05-10T01:09:09;17.90;99.90
7216;DHT22;3649;48.798;9.798;2023-05-10T01:11:38;17.80;99.90
7216;DHT22;3649;48.798;9.798;2023-05-10T01:14:06;17.70;99.90
7216;DHT22;3649;48.798;9.798;2023-05-10T01:16:37;17.50;99.90
7216;DHT22;3649;48.798;9.798;2023-05-10T01:19:26;17.40;99.90
7216;DHT22;3649;48.798;9.798;2023-05-10T01:28:17;17.20;99.90
7216;DHT22;3649;48.798;9.798;2023-05-10T01:31:06;17.10;99.90
7216;DHT22;3649;48.798;9.798;2023-05-10T01:33:38;17.20;99.90
7216;DHT22;3649;48.798;9.798;2023-05-10T01:36:09;17.10;99.90
7216;DHT22;3649;48.798;9.798;2023-05-10T01:38:49;17.20;99.90
7216;DHT22;3649;48.798;9.798;2023-05-10T01:44:18;17.20;99.90
7216;DHT22;3649;48.798;9.798;2023-05-10T01:46:58;17.30;99.90
7216;DHT22;3649;48.798;9.798;2023-05-10T01:49:32;17.30;99.90
7216;DHT22;3649;48.798;9.798;2023-05-10T01:52:07;17.20;99.90
7216;DHT22;3649;48.798;9.798;2023-05-10T01:54:35;17.20;99.90
7216;DHT22;3649;48.798;9.798;2023-05-10T01:57:06;17.20;99.90
7216;DHT22;3649;48.798;9.798;2023-05-10T01:59:36;17.30;99.90
7216;DHT22;3649;48.798;9.798;2023-05-10T02:02:08;17.30;99.90
7216;DHT22;3649;48.798;9.798;2023-05-10T02:04:39;17.30;99.90
7216;DHT22;3649;48.798;9.798;2023-05-10T02:07:08;17.40;99.90
7216;DHT22;3649;48.798;9.798;2023-05-10T02:09:36;17.40;99.90
7216;DHT22;3649;48.798;9.798;2023-05-10T02:12:05;17.50;99.90
7216;DHT22;3649;48.798;9.798;2023-05-10T02:14:35;17.50;99.90
7216;DHT22;3649;48.798;9.798;2023-05-10T02:17:04;17.50;99.90
7216;DHT22;3649;48.798;9.798;2023-05-10T02:19:32;17.50;99.90
7216;DHT22;3649;48.798;9.798;2023-05-10T02:22:01;17.50;99.90
7216;DHT22;3649;48.798;9.798;2023-05-10T02:24:29;17.60;99.90
7216;DHT22;3649;48.798;9.798;2023-05-10T02:26:56;17.60;99.90
7216;DHT22;3649;48.798;9.798;2023-05-10T02:29:25;17.60;99.90
7216;DHT22;3649;48.798;9.798;2023-05-10T02:31:54;17.50;99.90
7216;DHT22;3649;48.798;9.798;2023-05-10T02:34:23;17.50;99.90
7216;DHT22;3649;48.798;9.798;2023-05-10T02:36:51;17.40;99.90
7216;DHT22;3649;48.798;9.798;2023-05-10T02:39:22;17.40;99.90
7216;DHT22;3649;48.798;9.798;2023-05-10T02:41:51;17.40;99.90
7216;DHT22;3649;48.798;9.798;2023-05-10T02:44:19;17.30;99.90
7216;DHT22;3649;48.798;9.798;2023-05-10T02:46:47;17.40;99.90
7216;DHT22;3649;48.798;9.798;2023-05-10T02:49:15;17.50;99.90
7216;DHT22;3649;48.798;9.798;2023-05-10T02:51:44;17.50;99.90
7216;DHT22;3649;48.798;9.798;2023-05-10T02:54:19;17.50;99.90
7216;DHT22;3649;48.798;9.798;2023-05-10T02:56:51;17.50;99.90
7216;DHT22;3649;48.798;9.798;2023-05-10T02:59:20;17.50;99.90
7216;DHT22;3649;48.798;9.798;2023-05-10T03:01:46;17.40;99.90
7216;DHT22;3649;48.798;9.798;2023-05-10T03:04:14;17.40;99.90
7216;DHT22;3649;48.798;9.798;2023-05-10T03:06:41;17.40;99.90
7216;DHT22;3649;48.798;9.798;2023-05-10T03:09:09;17.40;99.90
7216;DHT22;3649;48.798;9.798;2023-05-10T03:17:47;17.50;99.90
7216;DHT22;3649;48.798;9.798;2023-05-10T03:21:24;17.40;99.90
7216;DHT22;3649;48.798;9.798;2023-05-10T03:23:44;17.50;99.90
7216;DHT22;3649;48.798;9.798;2023-05-10T03:26:20;17.40;99.90
7216;DHT22;3649;48.798;9.798;2023-05-10T03:28:49;17.40;99.90
7216;DHT22;3649;48.798;9.798;2023-05-10T03:31:17;17.30;99.90
7216;DHT22;3649;48.798;9.798;2023-05-10T03:33:48;17.40;99.90
7216;DHT22;3649;48.798;9.798;2023-05-10T03:36:15;17.40;99.90
7216;DHT22;3649;48.798;9.798;2023-05-10T03:38:42;17.40;99.90
7216;DHT22;3649;48.798;9.798;2023-05-10T03:41:09;17.40;99.90
7216;DHT22;3649;48.798;9.798;2023-05-10T03:43:36;17.40;99.90
7216;DHT22;3649;48.798;9.798;2023-05-10T03:46:04;17.50;99.90
7216;DHT22;3649;48.798;9.798;2023-05-10T03:48:32;17.60;99.90
7216;DHT22;3649;48.798;9.798;2023-05-10T03:50:59;17.60;99.90
7216;DHT22;3649;48.798;9.798;2023-05-10T03:53:26;17.60;99.90
7216;DHT22;3649;48.798;9.798;2023-05-10T03:55:53;17.60;99.90
7216;DHT22;3649;48.798;9.798;2023-05-10T03:58:20;17.70;99.90
7216;DHT22;3649;48.798;9.798;2023-05-10T04:00:48;17.60;99.90
7216;DHT22;3649;48.798;9.798;2023-05-10T04:03:15;17.60;99.90
7216;DHT22;3649;48.798;9.798;2023-05-10T04:05:42;17.50;99.90
7216;DHT22;3649;48.798;9.798;2023-05-10T04:08:08;17.40;99.90
7216;DHT22;3649;48.798;9.798;2023-05-10T04:10:35;17.40;99.90
7216;DHT22;3649;48.798;9.798;2023-05-10T04:13:02;17.40;99.90
7216;DHT22;3649;48.798;9.798;2023-05-10T04:15:29;17.40;99.90
7216;DHT22;3649;48.798;9.798;2023-05-10T04:17:56;17.40;99.90
7216;DHT22;3649;48.798;9.798;2023-05-10T04:20:23;17.50;99.90
7216;DHT22;3649;48.798;9.798;2023-05-10T04:22:50;17.50;99.90
7216;DHT22;3649;48.798;9.798;2023-05-10T04:25:16;17.50;99.90
7216;DHT22;3649;48.798;9.798;2023-05-10T04:27:43;17.60;99.90
7216;DHT22;3649;48.798;9.798;2023-05-10T04:30:10;17.60;99.90
7216;DHT22;3649;48.798;9.798;2023-05-10T04:32:37;17.60;99.90
7216;DHT22;3649;48.798;9.798;2023-05-10T04:35:04;17.50;99.90
7216;DHT22;3649;48.798;9.798;2023-05-10T04:37:31;17.50;99.90
7216;DHT22;3649;48.798;9.798;2023-05-10T04:39:58;17.40;99.90
7216;DHT22;3649;48.798;9.798;2023-05-10T04:42:26;17.50;99.90
7216;DHT22;3649;48.798;9.798;2023-05-10T04:44:53;17.50;99.90
7216;DHT22;3649;48.798;9.798;2023-05-10T04:47:20;17.50;99.90
7216;DHT22;3649;48.798;9.798;2023-05-10T04:49:47;17.50;99.90
7216;DHT22;3649;48.798;9.798;2023-05-10T04:52:14;17.50;99.90
7216;DHT22;3649;48.798;9.798;2023-05-10T04:54:41;17.60;99.90
7216;DHT22;3649;48.798;9.798;2023-05-10T04:57:08;17.60;99.90
7216;DHT22;3649;48.798;9.798;2023-05-10T04:59:36;17.50;99.90
7216;DHT22;3649;48.798;9.798;2023-05-10T05:02:04;17.60;99.90
7216;DHT22;3649;48.798;9.798;2023-05-10T05:04:31;17.60;99.90
7216;DHT22;3649;48.798;9.798;2023-05-10T05:06:58;17.70;99.90
7216;DHT22;3649;48.798;9.798;2023-05-10T05:09:25;17.60;99.90
7216;DHT22;3649;48.798;9.798;2023-05-10T05:11:52;17.70;99.90
7216;DHT22;3649;48.798;9.798;2023-05-10T05:14:19;17.70;99.90
7216;DHT22;3649;48.798;9.798;2023-05-10T05:16:47;17.80;99.90
7216;DHT22;3649;48.798;9.798;2023-05-10T05:19:14;17.80;99.90
7216;DHT22;3649;48.798;9.798;2023-05-10T05:21:42;17.80;99.90
7216;DHT22;3649;48.798;9.798;2023-05-10T05:24:08;17.80;99.90
7216;DHT22;3649;48.798;9.798;2023-05-10T05:26:36;17.70;99.90
7216;DHT22;3649;48.798;9.798;2023-05-10T05:29:03;17.80;99.90
7216;DHT22;3649;48.798;9.798;2023-05-10T05:31:30;17.80;99.90
7216;DHT22;3649;48.798;9.798;2023-05-10T05:33:57;17.80;99.90
7216;DHT22;3649;48.798;9.798;2023-05-10T05:36:24;17.80;99.90
7216;DHT22;3649;48.798;9.798;2023-05-10T05:38:51;17.90;99.90
7216;DHT22;3649;48.798;9.798;2023-05-10T05:41:18;17.80;99.90
7216;DHT22;3649;48.798;9.798;2023-05-10T05:43:45;17.70;99.90
7216;DHT22;3649;48.798;9.798;2023-05-10T05:46:12;17.70;99.90
7216;DHT22;3649;48.798;9.798;2023-05-10T05:48:38;17.80;99.90
7216;DHT22;3649;48.798;9.798;2023-05-10T05:51:05;17.80;99.90
7216;DHT22;3649;48.798;9.798;2023-05-10T05:53:33;17.90;99.90
7216;DHT22;3649;48.798;9.798;2023-05-10T05:56:01;17.90;99.90
7216;DHT22;3649;48.798;9.798;2023-05-10T05:58:28;17.90;99.90
7216;DHT22;3649;48.798;9.798;2023-05-10T06:00:55;17.80;99.90
7216;DHT22;3649;48.798;9.798;2023-05-10T06:03:21;17.90;99.90
7216;DHT22;3649;48.798;9.798;2023-05-10T06:05:48;17.90;99.90
7216;DHT22;3649;48.798;9.798;2023-05-10T06:08:15;17.90;99.90
7216;DHT22;3649;48.798;9.798;2023-05-10T06:10:42;18.00;99.90
7216;DHT22;3649;48.798;9.798;2023-05-10T06:13:09;18.00;99.90
7216;DHT22;3649;48.798;9.798;2023-05-10T06:15:36;17.90;99.90
7216;DHT22;3649;48.798;9.798;2023-05-10T06:18:03;18.00;99.90
7216;DHT22;3649;48.798;9.798;2023-05-10T06:20:30;18.00;99.90
7216;DHT22;3649;48.798;9.798;2023-05-10T06:22:58;18.00;99.90
7216;DHT22;3649;48.798;9.798;2023-05-10T06:25:25;18.00;99.90
7216;DHT22;3649;48.798;9.798;2023-05-10T06:27:52;18.10;99.90
7216;DHT22;3649;48.798;9.798;2023-05-10T06:30:25;18.10;99.90
7216;DHT22;3649;48.798;9.798;2023-05-10T06:32:55;18.20;99.90
7216;DHT22;3649;48.798;9.798;2023-05-10T06:35:22;18.10;99.90
7216;DHT22;3649;48.798;9.798;2023-05-10T06:37:49;18.10;99.90
7216;DHT22;3649;48.798;9.798;2023-05-10T06:40:16;18.10;99.90
7216;DHT22;3649;48.798;9.798;2023-05-10T06:42:43;18.20;99.90
7216;DHT22;3649;48.798;9.798;2023-05-10T06:45:11;18.20;99.90
7216;DHT22;3649;48.798;9.798;2023-05-10T06:47:39;18.20;99.90
7216;DHT22;3649;48.798;9.798;2023-05-10T06:50:07;18.20;99.90
7216;DHT22;3649;48.798;9.798;2023-05-10T06:52:34;18.20;99.90
7216;DHT22;3649;48.798;9.798;2023-05-10T06:55:03;18.20;99.90
7216;DHT22;3649;48.798;9.798;2023-05-10T06:57:31;18.20;99.90
7216;DHT22;3649;48.798;9.798;2023-05-10T06:59:59;18.20;99.90
7216;DHT22;3649;48.798;9.798;2023-05-10T07:02:26;18.30;99.90
7216;DHT22;3649;48.798;9.798;2023-05-10T07:04:53;18.30;99.90
7216;DHT22;3649;48.798;9.798;2023-05-10T07:07:20;18.20;99.90
7216;DHT22;3649;48.798;9.798;2023-05-10T07:09:47;18.20;99.90
7216;DHT22;3649;48.798;9.798;2023-05-10T07:12:15;18.20;99.90
7216;DHT22;3649;48.798;9.798;2023-05-10T07:14:42;18.20;99.90
7216;DHT22;3649;48.798;9.798;2023-05-10T07:17:09;18.20;99.90
7216;DHT22;3649;48.798;9.798;2023-05-10T07:19:36;18.10;99.90
7216;DHT22;3649;48.798;9.798;2023-05-10T07:22:03;18.10;99.90
7216;DHT22;3649;48.798;9.798;2023-05-10T07:24:30;18.00;99.90
7216;DHT22;3649;48.798;9.798;2023-05-10T07:26:58;17.90;99.90
7216;DHT22;3649;48.798;9.798;2023-05-10T07:29:25;17.90;99.90
7216;DHT22;3649;48.798;9.798;2023-05-10T07:31:52;17.90;99.90
7216;DHT22;3649;48.798;9.798;2023-05-10T07:34:22;17.90;99.90
7216;DHT22;3649;48.798;9.798;2023-05-10T07:36:49;17.90;99.90
7216;DHT22;3649;48.798;9.798;2023-05-10T07:39:16;17.90;99.90
7216;DHT22;3649;48.798;9.798;2023-05-10T07:41:53;17.80;99.90
7216;DHT22;3649;48.798;9.798;2023-05-10T07:44:19;17.80;99.90
7216;DHT22;3649;48.798;9.798;2023-05-10T07:46:47;17.80;99.90
7216;DHT22;3649;48.798;9.798;2023-05-10T07:49:15;17.80;99.90
7216;DHT22;3649;48.798;9.798;2023-05-10T07:51:42;17.90;99.90
7216;DHT22;3649;48.798;9.798;2023-05-10T07:54:12;17.90;99.90
7216;DHT22;3649;48.798;9.798;2023-05-10T07:56:39;17.80;99.90
7216;DHT22;3649;48.798;9.798;2023-05-10T07:59:15;17.80;99.90
7216;DHT22;3649;48.798;9.798;2023-05-10T08:01:42;17.80;99.90
7216;DHT22;3649;48.798;9.798;2023-05-10T08:04:09;17.60;99.90
7216;DHT22;3649;48.798;9.798;2023-05-10T08:06:36;17.70;99.90
7216;DHT22;3649;48.798;9.798;2023-05-10T08:09:03;17.70;99.90
7216;DHT22;3649;48.798;9.798;2023-05-10T08:11:30;17.70;99.90
7216;DHT22;3649;48.798;9.798;2023-05-10T08:13:59;17.80;99.90
7216;DHT22;3649;48.798;9.798;2023-05-10T08:16:26;17.90;99.90
7216;DHT22;3649;48.798;9.798;2023-05-10T08:18:54;17.90;99.90
7216;DHT22;3649;48.798;9.798;2023-05-10T08:21:22;17.90;99.90
7216;DHT22;3649;48.798;9.798;2023-05-10T08:23:49;18.00;99.90
7216;DHT22;3649;48.798;9.798;2023-05-10T08:26:16;18.00;99.90
7216;DHT22;3649;48.798;9.798;2023-05-10T08:28:43;18.00;99.90
7216;DHT22;3649;48.798;9.798;2023-05-10T08:31:09;18.10;99.90
7216;DHT22;3649;48.798;9.798;2023-05-10T08:33:36;18.10;99.90
7216;DHT22;3649;48.798;9.798;2023-05-10T08:36:04;18.10;99.90
7216;DHT22;3649;48.798;9.798;2023-05-10T08:38:31;18.20;99.90
7216;DHT22;3649;48.798;9.798;2023-05-10T08:40:58;18.20;99.90
7216;DHT22;3649;48.798;9.798;2023-05-10T08:43:27;18.30;99.90
7216;DHT22;3649;48.798;9.798;2023-05-10T08:46:00;18.30;99.90
7216;DHT22;3649;48.798;9.798;2023-05-10T08:48:30;18.30;99.90
7216;DHT22;3649;48.798;9.798;2023-05-10T08:50:58;18.40;99.90
7216;DHT22;3649;48.798;9.798;2023-05-10T08:53:27;18.40;99.90
7216;DHT22;3649;48.798;9.798;2023-05-10T08:55:55;18.40;99.90
7216;DHT22;3649;48.798;9.798;2023-05-10T08:58:24;18.40;99.90
7216;DHT22;3649;48.798;9.798;2023-05-10T09:00:51;18.40;99.90
7216;DHT22;3649;48.798;9.798;2023-05-10T09:03:19;18.40;99.90
7216;DHT22;3649;48.798;9.798;2023-05-10T09:05:46;18.50;99.90
7216;DHT22;3649;48.798;9.798;2023-05-10T09:08:14;18.50;99.90
7216;DHT22;3649;48.798;9.798;2023-05-10T09:10:44;18.50;99.90
7216;DHT22;3649;48.798;9.798;2023-05-10T09:13:14;18.50;99.90
7216;DHT22;3649;48.798;9.798;2023-05-10T09:15:43;18.40;99.90
7216;DHT22;3649;48.798;9.798;2023-05-10T09:18:10;18.40;99.90
7216;DHT22;3649;48.798;9.798;2023-05-10T09:20:37;18.40;99.90
7216;DHT22;3649;48.798;9.798;2023-05-10T09:23:04;18.50;99.90
7216;DHT22;3649;48.798;9.798;2023-05-10T09:25:31;18.50;99.90
7216;DHT22;3649;48.798;9.798;2023-05-10T09:28:01;18.50;99.90
7216;DHT22;3649;48.798;9.798;2023-05-10T09:30:30;18.40;99.90
7216;DHT22;3649;48.798;9.798;2023-05-10T09:32:59;18.50;99.90
7216;DHT22;3649;48.798;9.798;2023-05-10T09:35:28;18.50;99.90
7216;DHT22;3649;48.798;9.798;2023-05-10T09:37:58;18.50;99.90
7216;DHT22;3649;48.798;9.798;2023-05-10T09:40:28;18.40;99.90
7216;DHT22;3649;48.798;9.798;2023-05-10T09:43:03;18.40;99.90
7216;DHT22;3649;48.798;9.798;2023-05-10T09:45:32;18.50;99.90
7216;DHT22;3649;48.798;9.798;2023-05-10T09:48:03;18.40;99.90
7216;DHT22;3649;48.798;9.798;2023-05-10T09:50:30;18.50;99.90
7216;DHT22;3649;48.798;9.798;2023-05-10T09:52:59;18.50;99.90
7216;DHT22;3649;48.798;9.798;2023-05-10T09:55:40;18.50;99.90
7216;DHT22;3649;48.798;9.798;2023-05-10T09:58:07;18.40;99.90
7216;DHT22;3649;48.798;9.798;2023-05-10T10:00:39;18.40;99.90
7216;DHT22;3649;48.798;9.798;2023-05-10T10:03:15;18.50;99.90
7216;DHT22;3649;48.798;9.798;2023-05-10T10:05:43;18.40;99.90
7216;DHT22;3649;48.798;9.798;2023-05-10T10:08:11;18.50;99.90
7216;DHT22;3649;48.798;9.798;2023-05-10T10:10:39;18.60;99.90
7216;DHT22;3649;48.798;9.798;2023-05-10T10:13:13;18.60;99.90
7216;DHT22;3649;48.798;9.798;2023-05-10T10:15:40;18.60;99.90
7216;DHT22;3649;48.798;9.798;2023-05-10T10:18:13;18.80;99.90
7216;DHT22;3649;48.798;9.798;2023-05-10T10:20:41;18.80;99.90
7216;DHT22;3649;48.798;9.798;2023-05-10T10:23:08;18.90;99.90
7216;DHT22;3649;48.798;9.798;2023-05-10T10:25:37;18.80;99.90
7216;DHT22;3649;48.798;9.798;2023-05-10T10:28:16;18.90;99.90
7216;DHT22;3649;48.798;9.798;2023-05-10T10:30:50;18.80;99.90
7216;DHT22;3649;48.798;9.798;2023-05-10T10:33:59;18.70;99.90
7216;DHT22;3649;48.798;9.798;2023-05-10T10:36:23;18.60;99.90
7216;DHT22;3649;48.798;9.798;2023-05-10T10:39:01;18.70;99.90
7216;DHT22;3649;48.798;9.798;2023-05-10T10:41:35;18.70;99.90
7216;DHT22;3649;48.798;9.798;2023-05-10T10:49:37;18.80;99.90
7216;DHT22;3649;48.798;9.798;2023-05-10T10:52:24;18.90;99.90
7216;DHT22;3649;48.798;9.798;2023-05-10T10:57:25;18.90;99.90
7216;DHT22;3649;48.798;9.798;2023-05-10T11:08:28;19.20;99.90
7216;DHT22;3649;48.798;9.798;2023-05-10T11:11:02;19.20;99.90
7216;DHT22;3649;48.798;9.798;2023-05-10T11:13:46;19.20;99.90
7216;DHT22;3649;48.798;9.798;2023-05-10T11:19:03;19.20;99.90
7216;DHT22;3649;48.798;9.798;2023-05-10T11:21:31;19.20;99.90
7216;DHT22;3649;48.798;9.798;2023-05-10T11:24:00;19.30;99.90
7216;DHT22;3649;48.798;9.798;2023-05-10T11:26:34;19.30;99.90
7216;DHT22;3649;48.798;9.798;2023-05-10T11:29:02;19.20;99.90
7216;DHT22;3649;48.798;9.798;2023-05-10T11:31:31;19.30;99.90
7216;DHT22;3649;48.798;9.798;2023-05-10T11:33:59;19.30;99.90
7216;DHT22;3649;48.798;9.798;2023-05-10T11:36:28;19.40;99.90
7216;DHT22;3649;48.798;9.798;2023-05-10T11:38:56;19.30;99.90
7216;DHT22;3649;48.798;9.798;2023-05-10T11:41:24;19.20;99.90
7216;DHT22;3649;48.798;9.798;2023-05-10T11:43:52;19.20;99.90
7216;DHT22;3649;48.798;9.798;2023-05-10T11:46:21;19.10;99.90
7216;DHT22;3649;48.798;9.798;2023-05-10T11:48:50;19.10;99.90
7216;DHT22;3649;48.798;9.798;2023-05-10T11:51:24;19.00;99.90
7216;DHT22;3649;48.798;9.798;2023-05-10T11:53:55;19.00;99.90
7216;DHT22;3649;48.798;9.798;2023-05-10T11:56:23;19.00;99.90
7216;DHT22;3649;48.798;9.798;2023-05-10T11:58:56;19.00;99.90
7216;DHT22;3649;48.798;9.798;2023-05-10T12:01:25;18.90;99.90
7216;DHT22;3649;48.798;9.798;2023-05-10T12:03:54;19.00;99.90
7216;DHT22;3649;48.798;9.798;2023-05-10T12:06:22;18.90;99.90
7216;DHT22;3649;48.798;9.798;2023-05-10T12:08:49;18.90;99.90
7216;DHT22;3649;48.798;9.798;2023-05-10T12:11:25;19.00;99.90
7216;DHT22;3649;48.798;9.798;2023-05-10T12:13:52;19.00;99.90
7216;DHT22;3649;48.798;9.798;2023-05-10T12:16:21;19.00;99.90
7216;DHT22;3649;48.798;9.798;2023-05-10T12:18:52;19.10;99.90
7216;DHT22;3649;48.798;9.798;2023-05-10T12:21:22;19.10;99.90
7216;DHT22;3649;48.798;9.798;2023-05-10T12:23:53;19.10;99.90
7216;DHT22;3649;48.798;9.798;2023-05-10T12:26:24;19.00;99.90
7216;DHT22;3649;48.798;9.798;2023-05-10T12:29:17;19.10;99.90
7216;DHT22;3649;48.798;9.798;2023-05-10T12:31:56;19.10;99.90
7216;DHT22;3649;48.798;9.798;2023-05-10T12:34:30;19.00;99.90
7216;DHT22;3649;48.798;9.798;2023-05-10T12:36:57;18.90;99.90
7216;DHT22;3649;48.798;9.798;2023-05-10T12:39:24;18.90;99.90
7216;DHT22;3649;48.798;9.798;2023-05-10T12:41:52;18.90;99.90
7216;DHT22;3649;48.798;9.798;2023-05-10T12:44:19;18.80;99.90
7216;DHT22;3649;48.798;9.798;2023-05-10T12:46:46;18.80;99.90
7216;DHT22;3649;48.798;9.798;2023-05-10T12:49:12;18.70;99.90
7216;DHT22;3649;48.798;9.798;2023-05-10T12:51:40;18.60;99.90
7216;DHT22;3649;48.798;9.798;2023-05-10T12:54:06;18.50;99.90
7216;DHT22;3649;48.798;9.798;2023-05-10T12:56:33;18.50;99.90
7216;DHT22;3649;48.798;9.798;2023-05-10T12:59:00;18.30;99.90
7216;DHT22;3649;48.798;9.798;2023-05-10T13:01:27;18.30;99.90
7216;DHT22;3649;48.798;9.798;2023-05-10T13:03:54;18.30;99.90
7216;DHT22;3649;48.798;9.798;2023-05-10T13:06:21;18.20;99.90
7216;DHT22;3649;48.798;9.798;2023-05-10T13:08:48;18.20;99.90
7216;DHT22;3649;48.798;9.798;2023-05-10T13:11:15;18.20;99.90
7216;DHT22;3649;48.798;9.798;2023-05-10T13:13:43;18.20;99.90
7216;DHT22;3649;48.798;9.798;2023-05-10T13:16:10;18.10;99.90
7216;DHT22;3649;48.798;9.798;2023-05-10T13:18:37;18.10;99.90
7216;DHT22;3649;48.798;9.798;2023-05-10T13:21:04;18.00;99.90
7216;DHT22;3649;48.798;9.798;2023-05-10T13:23:31;18.00;99.90
7216;DHT22;3649;48.798;9.798;2023-05-10T13:25:58;17.90;99.90
7216;DHT22;3649;48.798;9.798;2023-05-10T13:28:25;17.90;99.90
7216;DHT22;3649;48.798;9.798;2023-05-10T13:30:53;17.90;99.90
7216;DHT22;3649;48.798;9.798;2023-05-10T13:33:20;17.90;99.90
7216;DHT22;3649;48.798;9.798;2023-05-10T13:35:46;17.80;99.90
7216;DHT22;3649;48.798;9.798;2023-05-10T13:38:13;18.00;99.90
7216;DHT22;3649;48.798;9.798;2023-05-10T13:40:40;18.00;99.90
7216;DHT22;3649;48.798;9.798;2023-05-10T13:43:07;18.00;99.90
7216;DHT22;3649;48.798;9.798;2023-05-10T13:45:34;18.00;99.90
7216;DHT22;3649;48.798;9.798;2023-05-10T13:48:01;18.00;99.90
7216;DHT22;3649;48.798;9.798;2023-05-10T13:50:28;17.90;99.90
7216;DHT22;3649;48.798;9.798;2023-05-10T13:52:55;17.90;99.90
7216;DHT22;3649;48.798;9.798;2023-05-10T13:55:22;17.90;99.90
7216;DHT22;3649;48.798;9.798;2023-05-10T13:57:49;17.80;99.90
7216;DHT22;3649;48.798;9.798;2023-05-10T14:00:16;17.80;99.90
7216;DHT22;3649;48.798;9.798;2023-05-10T14:02:43;17.90;99.90
7216;DHT22;3649;48.798;9.798;2023-05-10T14:05:10;18.00;99.90
7216;DHT22;3649;48.798;9.798;2023-05-10T14:07:38;18.10;99.90
7216;DHT22;3649;48.798;9.798;2023-05-10T14:10:05;18.20;99.90
7216;DHT22;3649;48.798;9.798;2023-05-10T14:12:33;18.30;99.90
7216;DHT22;3649;48.798;9.798;2023-05-10T14:15:00;18.30;99.90
7216;DHT22;3649;48.798;9.798;2023-05-10T14:17:27;18.40;99.90
7216;DHT22;3649;48.798;9.798;2023-05-10T14:19:54;18.30;99.90
7216;DHT22;3649;48.798;9.798;2023-05-10T14:22:21;18.40;99.90
7216;DHT22;3649;48.798;9.798;2023-05-10T14:24:49;18.40;99.90
7216;DHT22;3649;48.798;9.798;2023-05-10T14:27:16;18.40;99.90
7216;DHT22;3649;48.798;9.798;2023-05-10T14:29:43;18.50;99.90
7216;DHT22;3649;48.798;9.798;2023-05-10T14:32:10;18.50;99.90
7216;DHT22;3649;48.798;9.798;2023-05-10T14:34:37;18.50;99.90
7216;DHT22;3649;48.798;9.798;2023-05-10T14:37:04;18.50;99.90
7216;DHT22;3649;48.798;9.798;2023-05-10T14:39:31;18.60;99.90
7216;DHT22;3649;48.798;9.798;2023-05-10T14:41:59;18.60;99.90
7216;DHT22;3649;48.798;9.798;2023-05-10T14:44:26;18.60;99.90
7216;DHT22;3649;48.798;9.798;2023-05-10T14:46:53;18.60;99.90
7216;DHT22;3649;48.798;9.798;2023-05-10T14:49:20;18.60;99.90
7216;DHT22;3649;48.798;9.798;2023-05-10T14:51:49;18.60;99.90
7216;DHT22;3649;48.798;9.798;2023-05-10T14:54:16;18.60;99.90
7216;DHT22;3649;48.798;9.798;2023-05-10T14:56:43;18.60;99.90
7216;DHT22;3649;48.798;9.798;2023-05-10T14:59:10;18.60;99.90
7216;DHT22;3649;48.798;9.798;2023-05-10T15:01:37;18.70;99.90
7216;DHT22;3649;48.798;9.798;2023-05-10T15:04:05;18.70;99.90
7216;DHT22;3649;48.798;9.798;2023-05-10T15:06:33;18.60;99.90
7216;DHT22;3649;48.798;9.798;2023-05-10T15:09:01;18.60;99.90
7216;DHT22;3649;48.798;9.798;2023-05-10T15:11:30;18.60;99.90
7216;DHT22;3649;48.798;9.798;2023-05-10T15:13:57;18.60;99.90
7216;DHT22;3649;48.798;9.798;2023-05-10T15:16:23;18.60;99.90
7216;DHT22;3649;48.798;9.798;2023-05-10T15:18:50;18.70;99.90
7216;DHT22;3649;48.798;9.798;2023-05-10T15:21:17;18.80;99.90
7216;DHT22;3649;48.798;9.798;2023-05-10T15:23:44;18.80;99.90
7216;DHT22;3649;48.798;9.798;2023-05-10T15:26:11;18.80;99.90
7216;DHT22;3649;48.798;9.798;2023-05-10T15:28:38;18.80;99.90
7216;DHT22;3649;48.798;9.798;2023-05-10T15:31:05;18.90;99.90
7216;DHT22;3649;48.798;9.798;2023-05-10T15:33:31;18.80;99.90
7216;DHT22;3649;48.798;9.798;2023-05-10T15:35:59;18.80;99.90
7216;DHT22;3649;48.798;9.798;2023-05-10T15:38:25;18.80;99.90
7216;DHT22;3649;48.798;9.798;2023-05-10T15:40:56;18.90;99.90
7216;DHT22;3649;48.798;9.798;2023-05-10T15:43:24;18.90;99.90
7216;DHT22;3649;48.798;9.798;2023-05-10T15:45:51;18.90;99.90
7216;DHT22;3649;48.798;9.798;2023-05-10T15:48:18;18.90;99.90
7216;DHT22;3649;48.798;9.798;2023-05-10T15:50:45;18.90;99.90
7216;DHT22;3649;48.798;9.798;2023-05-10T15:53:12;18.90;99.90
7216;DHT22;3649;48.798;9.798;2023-05-10T15:55:38;18.70;99.90
7216;DHT22;3649;48.798;9.798;2023-05-10T15:58:05;18.80;99.90
7216;DHT22;3649;48.798;9.798;2023-05-10T16:00:32;18.80;99.90
7216;DHT22;3649;48.798;9.798;2023-05-10T16:03:00;18.80;99.90
7216;DHT22;3649;48.798;9.798;2023-05-10T16:05:27;18.80;99.90
7216;DHT22;3649;48.798;9.798;2023-05-10T16:07:57;18.80;99.90
7216;DHT22;3649;48.798;9.798;2023-05-10T16:10:25;18.80;99.90
7216;DHT22;3649;48.798;9.798;2023-05-10T16:12:55;18.80;99.90
7216;DHT22;3649;48.798;9.798;2023-05-10T16:15:22;18.80;99.90
7216;DHT22;3649;48.798;9.798;2023-05-10T16:17:49;18.70;99.90
7216;DHT22;3649;48.798;9.798;2023-05-10T16:20:17;18.70;99.90
7216;DHT22;3649;48.798;9.798;2023-05-10T16:22:43;18.70;99.90
7216;DHT22;3649;48.798;9.798;2023-05-10T16:25:10;18.70;99.90
7216;DHT22;3649;48.798;9.798;2023-05-10T16:27:39;18.70;99.90
7216;DHT22;3649;48.798;9.798;2023-05-10T16:30:07;18.70;99.90
7216;DHT22;3649;48.798;9.798;2023-05-10T16:32:34;18.80;99.90
7216;DHT22;3649;48.798;9.798;2023-05-10T16:35:01;18.80;99.90
7216;DHT22;3649;48.798;9.798;2023-05-10T16:37:28;18.80;99.90
7216;DHT22;3649;48.798;9.798;2023-05-10T16:39:55;18.70;99.90
7216;DHT22;3649;48.798;9.798;2023-05-10T16:42:21;18.60;99.90
7216;DHT22;3649;48.798;9.798;2023-05-10T16:44:49;18.60;99.90